createdAt,value
2023-05-11T00:00:51.724Z,18.93
2023-05-11T00:03:56.085Z,18.70
2023-05-11T00:06:58.872Z,19.27
2023-05-11T00:10:01.441Z,17.73
2023-05-11T00:13:04.018Z,15.77
2023-05-11T00:16:06.960Z,16.23
2023-05-11T00:19:11.068Z,18.50
2023-05-11T00:22:13.662Z,19.43
2023-05-11T00:25:16.416Z,19.03
2023-05-11T00:28:18.994Z,17.43
2023-05-11T00:31:21.663Z,17.90
2023-05-11T00:34:25.608Z,18.07
2023-05-11T00:37:28.220Z,17.13
2023-05-11T00:40:32.886Z,15.70
2023-05-11T00:43:35.710Z,16.60
2023-05-11T00:46:38.869Z,16.47
2023-05-11T00:49:43.871Z,18.27
2023-05-11T00:52:46.722Z,17.40
2023-05-11T00:55:49.377Z,13.77
2023-05-11T00:58:52.890Z,13.53
2023-05-11T01:01:55.866Z,13.53
2023-05-11T01:05:00.529Z,14.30
2023-05-11T01:08:09.971Z,14.37
2023-05-11T01:11:18.744Z,15.30
2023-05-11T01:14:24.201Z,15.23
2023-05-11T01:17:35.293Z,15.97
2023-05-11T01:20:39.855Z,17.03
2023-05-11T01:23:52.467Z,13.53
2023-05-11T01:27:17.979Z,15.10
2023-05-11T01:30:28.933Z,12.93
2023-05-11T01:33:35.097Z,13.67
2023-05-11T01:36:43.769Z,13.47
2023-05-11T01:39:51.659Z,14.77
2023-05-11T01:43:01.229Z,15.87
2023-05-11T01:46:06.846Z,13.80
2023-05-11T01:49:11.199Z,10.97
2023-05-11T01:52:15.538Z,10.30
2023-05-11T01:55:20.597Z,11.90
2023-05-11T01:58:25.402Z,11.77
2023-05-11T02:01:30.880Z,12.00
2023-05-11T02:04:34.082Z,12.40
2023-05-11T02:07:39.419Z,11.13
2023-05-11T02:10:43.305Z,9.27
2023-05-11T02:13:47.841Z,9.73
2023-05-11T02:16:53.166Z,9.43
2023-05-11T02:19:57.272Z,10.47
2023-05-11T02:23:01.335Z,10.50
2023-05-11T02:26:04.688Z,9.77
2023-05-11T02:29:07.344Z,9.90
2023-05-11T02:32:21.419Z,12.53
2023-05-11T02:35:26.360Z,10.57
2023-05-11T02:38:33.382Z,11.57
2023-05-11T02:41:42.856Z,10.57
2023-05-11T02:44:54.337Z,11.37
2023-05-11T02:48:00.368Z,12.40
2023-05-11T02:51:04.704Z,12.93
2023-05-11T02:54:10.722Z,10.07
2023-05-11T02:57:14.184Z,11.73
2023-05-11T03:00:17.737Z,11.40
2023-05-11T03:03:22.197Z,11.37
2023-05-11T03:06:24.904Z,12.10
2023-05-11T03:09:27.639Z,10.10
2023-05-11T03:12:32.994Z,10.33
2023-05-11T03:15:36.590Z,12.67
2023-05-11T03:18:41.261Z,11.47
2023-05-11T03:21:44.404Z,10.87
2023-05-11T03:24:47.604Z,12.63
2023-05-11T03:27:52.229Z,10.23
2023-05-11T03:30:55.462Z,11.00
2023-05-11T03:33:59.713Z,11.43
2023-05-11T03:37:03.608Z,12.60
2023-05-11T03:40:09.028Z,14.83
2023-05-11T03:43:13.312Z,11.57
2023-05-11T03:46:20.345Z,13.27
2023-05-11T03:49:25.505Z,12.33
2023-05-11T03:52:28.404Z,13.40
2023-05-11T03:55:31.084Z,12.80
2023-05-11T03:58:33.787Z,12.47
2023-05-11T04:01:36.505Z,14.73
2023-05-11T04:04:40.705Z,13.83
2023-05-11T04:07:43.326Z,13.50
2023-05-11T04:10:45.985Z,15.07
2023-05-11T04:13:48.708Z,15.23
2023-05-11T04:16:51.300Z,14.03
2023-05-11T04:19:55.227Z,16.00
2023-05-11T04:22:57.856Z,14.70
2023-05-11T04:26:00.630Z,14.13
2023-05-11T04:29:03.777Z,14.13
2023-05-11T04:32:06.439Z,14.40
2023-05-11T04:35:10.885Z,14.37
2023-05-11T04:38:13.481Z,14.53
2023-05-11T04:41:16.334Z,16.53
2023-05-11T04:44:18.917Z,14.23
2023-05-11T04:47:21.510Z,16.07
2023-05-11T04:50:25.461Z,13.03
2023-05-11T04:53:28.218Z,14.37
2023-05-11T04:56:30.782Z,15.30
2023-05-11T04:59:34.646Z,12.90
2023-05-11T05:02:37.382Z,11.27
2023-05-11T05:05:41.386Z,13.97
2023-05-11T05:08:43.985Z,13.83
2023-05-11T05:11:46.598Z,15.30
2023-05-11T05:14:49.192Z,16.30
2023-05-11T05:17:51.871Z,15.90
2023-05-11T05:20:55.834Z,18.00
2023-05-11T05:23:58.390Z,15.77
2023-05-11T05:27:00.980Z,24.53
2023-05-11T05:30:03.645Z,19.27
2023-05-11T05:33:06.348Z,19.37
2023-05-11T05:36:10.527Z,21.07
2023-05-11T05:39:13.205Z,20.50
2023-05-11T05:42:15.860Z,19.20
2023-05-11T05:45:18.458Z,20.13
2023-05-11T05:48:21.079Z,20.20
2023-05-11T05:51:25.078Z,21.47
2023-05-11T05:54:27.701Z,34.63
2023-05-11T05:57:31.019Z,30.57
2023-05-11T06:00:33.696Z,32.00
2023-05-11T06:03:36.384Z,22.47
2023-05-11T06:06:40.461Z,19.57
2023-05-11T06:09:43.148Z,23.57
2023-05-11T06:12:45.752Z,28.13
2023-05-11T06:15:48.368Z,23.33
2023-05-11T06:18:51.209Z,42.00
2023-05-11T06:21:55.187Z,30.47
2023-05-11T06:24:57.999Z,27.00
2023-05-11T06:28:00.615Z,44.63
2023-05-11T06:31:03.763Z,33.53
2023-05-11T06:34:06.454Z,29.90
2023-05-11T06:37:10.414Z,26.90
2023-05-11T06:40:13.484Z,30.67
2023-05-11T06:43:16.064Z,32.27
2023-05-11T06:46:18.706Z,30.87
2023-05-11T06:49:22.408Z,36.03
2023-05-11T06:52:26.446Z,32.40
2023-05-11T06:55:29.023Z,33.57
2023-05-11T06:58:31.668Z,33.93
2023-05-11T07:01:34.401Z,29.70
2023-05-11T07:04:37.202Z,33.57
2023-05-11T07:07:41.944Z,31.87
2023-05-11T07:10:44.595Z,30.87
2023-05-11T07:13:47.230Z,29.33
2023-05-11T07:16:52.731Z,29.37
2023-05-11T07:19:55.538Z,33.30
2023-05-11T07:23:00.167Z,31.20
2023-05-11T07:26:08.750Z,31.37
2023-05-11T07:29:11.335Z,29.20
2023-05-11T07:32:14.050Z,30.90
2023-05-11T07:35:16.703Z,33.90
2023-05-11T07:38:20.681Z,27.17
2023-05-11T07:41:26.629Z,26.73
2023-05-11T07:44:29.269Z,28.97
2023-05-11T07:47:33.233Z,26.47
2023-05-11T07:50:37.021Z,31.47
2023-05-11T07:53:41.065Z,27.43
2023-05-11T07:56:43.678Z,23.53
2023-05-11T07:59:46.382Z,25.77
2023-05-11T08:02:49.183Z,23.60
2023-05-11T08:05:51.891Z,26.63
2023-05-11T08:08:55.847Z,24.57
2023-05-11T08:12:01.396Z,29.10
2023-05-11T08:15:04.543Z,34.77
2023-05-11T08:18:07.712Z,32.73
2023-05-11T08:21:10.445Z,20.60
2023-05-11T08:24:14.408Z,23.10
2023-05-11T08:27:17.202Z,20.80
2023-05-11T08:30:20.173Z,24.63
2023-05-11T08:33:36.459Z,20.63
2023-05-11T08:36:40.521Z,23.67
2023-05-11T08:39:47.673Z,20.57
2023-05-11T08:42:53.872Z,21.47
2023-05-11T08:46:01.543Z,32.77
2023-05-11T08:49:04.355Z,25.33
2023-05-11T08:52:07.913Z,19.87
2023-05-11T08:55:12.748Z,22.67
2023-05-11T08:58:19.359Z,23.87
2023-05-11T09:01:23.637Z,19.90
2023-05-11T09:04:27.148Z,18.57
2023-05-11T09:07:30.733Z,20.10
2023-05-11T09:10:34.937Z,24.53
2023-05-11T09:13:37.855Z,25.20
2023-05-11T09:16:41.292Z,20.77
2023-05-11T09:20:01.100Z,22.33
2023-05-11T09:23:03.794Z,24.53
2023-05-11T09:26:15.014Z,29.03
2023-05-11T09:29:20.707Z,21.83
2023-05-11T09:32:23.387Z,20.57
2023-05-11T09:35:28.659Z,19.70
2023-05-11T09:38:32.275Z,18.07
2023-05-11T09:41:36.567Z,16.40
2023-05-11T09:44:41.564Z,18.70
2023-05-11T09:47:44.235Z,19.70
2023-05-11T09:50:47.785Z,16.73
2023-05-11T09:53:50.403Z,16.43
2023-05-11T09:56:58.171Z,19.60
2023-05-11T10:00:01.223Z,17.27
2023-05-11T10:03:05.726Z,17.40
2023-05-11T10:06:08.968Z,18.50
2023-05-11T10:09:11.743Z,18.27
2023-05-11T10:12:15.844Z,15.20
2023-05-11T10:15:21.255Z,15.10
2023-05-11T10:18:24.264Z,15.63
2023-05-11T10:21:28.594Z,16.20
2023-05-11T10:24:33.640Z,16.90
2023-05-11T10:27:38.023Z,15.33
2023-05-11T10:30:42.619Z,15.47
2023-05-11T10:33:47.231Z,13.27
2023-05-11T10:36:53.311Z,14.53
2023-05-11T10:39:56.127Z,16.00
2023-05-11T10:43:19.851Z,15.10
2023-05-11T10:46:38.076Z,13.33
2023-05-11T10:50:02.880Z,14.70
2023-05-11T10:53:20.782Z,14.63
2023-05-11T10:56:47.679Z,15.37
2023-05-11T11:00:14.208Z,15.60
2023-05-11T11:03:17.079Z,18.10
2023-05-11T11:06:24.614Z,18.53
2023-05-11T11:09:27.350Z,21.27
2023-05-11T11:12:31.041Z,16.77
2023-05-11T11:16:16.170Z,18.03
2023-05-11T11:19:41.982Z,19.07
2023-05-11T11:22:47.063Z,32.33
2023-05-11T11:25:54.822Z,29.07
2023-05-11T11:29:11.569Z,22.07
2023-05-11T11:32:27.958Z,17.13
2023-05-11T11:35:48.643Z,16.70
2023-05-11T11:39:01.143Z,24.37
2023-05-11T11:42:04.571Z,16.13
2023-05-11T11:45:27.244Z,16.30
2023-05-11T11:48:32.398Z,16.57
2023-05-11T11:51:39.978Z,16.80
2023-05-11T11:54:44.829Z,17.93
2023-05-11T11:57:51.143Z,15.53
2023-05-11T12:00:54.102Z,26.60
2023-05-11T12:04:34.297Z,13.50
2023-05-11T12:07:42.904Z,13.83
2023-05-11T12:10:48.094Z,17.00
2023-05-11T12:13:50.960Z,17.77
2023-05-11T12:17:04.460Z,12.83
2023-05-11T12:20:15.119Z,12.23
2023-05-11T12:23:20.100Z,11.70
2023-05-11T12:26:23.952Z,13.37
2023-05-11T12:29:26.910Z,13.57
2023-05-11T12:32:30.644Z,12.83
2023-05-11T12:35:34.849Z,12.67
2023-05-11T12:38:45.681Z,13.60
2023-05-11T12:41:49.983Z,13.03
2023-05-11T12:44:52.971Z,15.93
2023-05-11T12:47:58.265Z,12.00
2023-05-11T12:51:00.895Z,13.93
2023-05-11T12:54:05.005Z,14.67
2023-05-11T12:57:09.391Z,14.23
2023-05-11T13:00:13.912Z,14.87
2023-05-11T13:03:22.858Z,14.87
2023-05-11T13:06:25.599Z,15.63
2023-05-11T13:09:29.530Z,15.63
2023-05-11T13:12:34.079Z,14.27
2023-05-11T13:15:51.237Z,15.93
2023-05-11T13:19:04.279Z,16.33
2023-05-11T13:22:08.130Z,15.77
2023-05-11T13:25:12.281Z,13.47
2023-05-11T13:28:15.662Z,13.33
2023-05-11T13:31:19.284Z,12.90
2023-05-11T13:34:22.078Z,13.97
2023-05-11T13:37:24.658Z,15.87
2023-05-11T13:40:28.847Z,13.73
2023-05-11T13:43:31.471Z,14.43
2023-05-11T13:46:34.170Z,13.97
2023-05-11T13:49:36.880Z,14.20
2023-05-11T13:52:40.325Z,14.00
2023-05-11T13:55:44.326Z,14.60
2023-05-11T13:58:46.920Z,12.33
2023-05-11T14:01:49.578Z,11.50
2023-05-11T14:04:52.295Z,14.40
2023-05-11T14:07:54.901Z,11.60
2023-05-11T14:10:58.829Z,12.00
2023-05-11T14:14:01.767Z,11.57
2023-05-11T14:17:04.475Z,13.47
2023-05-11T14:20:08.668Z,10.87
2023-05-11T14:23:11.245Z,13.07
2023-05-11T14:26:15.226Z,12.40
2023-05-11T14:29:17.786Z,14.60
2023-05-11T14:32:20.929Z,13.17
2023-05-11T14:35:23.695Z,15.10
2023-05-11T14:38:26.360Z,14.73
2023-05-11T14:41:30.358Z,13.93
2023-05-11T14:44:32.982Z,16.20
2023-05-11T14:47:35.888Z,13.97
2023-05-11T14:50:38.694Z,12.80
2023-05-11T14:53:41.397Z,12.63
2023-05-11T14:56:46.173Z,14.03
2023-05-11T14:59:59.096Z,10.10
2023-05-11T15:03:03.258Z,11.30
2023-05-11T15:06:06.427Z,15.50
2023-05-11T15:09:09.068Z,14.10
2023-05-11T15:12:13.093Z,15.20
2023-05-11T15:15:15.755Z,12.47
2023-05-11T15:18:18.565Z,11.17
2023-05-11T15:21:21.937Z,10.43
2023-05-11T15:24:24.524Z,10.03
2023-05-11T15:27:28.616Z,8.97
2023-05-11T15:30:32.708Z,12.90
2023-05-11T15:33:35.710Z,10.50
2023-05-11T15:36:38.328Z,12.83
2023-05-11T15:39:41.039Z,11.33
2023-05-11T15:42:44.986Z,13.87
2023-05-11T15:45:47.626Z,12.13
2023-05-11T15:48:50.267Z,14.90
2023-05-11T15:51:52.864Z,11.10
2023-05-11T15:54:55.444Z,12.20
2023-05-11T15:57:59.438Z,11.70
2023-05-11T16:01:02.094Z,12.33
2023-05-11T16:04:04.736Z,9.97
2023-05-11T16:07:07.345Z,13.63
2023-05-11T16:10:10.904Z,14.17
2023-05-11T16:13:14.886Z,14.67
2023-05-11T16:16:17.483Z,10.63
2023-05-11T16:19:20.125Z,10.93
2023-05-11T16:22:22.692Z,8.63
2023-05-11T16:25:25.296Z,10.00
2023-05-11T16:28:29.205Z,10.03
2023-05-11T16:31:31.822Z,10.40
2023-05-11T16:34:35.118Z,8.77
2023-05-11T16:37:37.901Z,11.73
2023-05-11T16:40:40.502Z,11.47
2023-05-11T16:43:46.039Z,7.60
2023-05-11T16:46:49.108Z,7.40
2023-05-11T16:49:51.851Z,7.63
2023-05-11T16:52:54.931Z,12.67
2023-05-11T16:55:58.024Z,6.97
2023-05-11T16:59:01.983Z,6.10
2023-05-11T17:02:06.777Z,6.53
2023-05-11T17:05:11.409Z,6.63
2023-05-11T17:08:14.052Z,7.03
2023-05-11T17:11:16.831Z,6.93
2023-05-11T17:14:20.890Z,7.67
2023-05-11T17:17:23.482Z,11.47
2023-05-11T17:20:26.642Z,10.17
2023-05-11T17:23:29.306Z,7.23
2023-05-11T17:26:43.400Z,10.60
2023-05-11T17:29:50.887Z,27.80
2023-05-11T17:32:53.667Z,10.70
2023-05-11T17:35:56.422Z,8.13
2023-05-11T17:38:59.006Z,17.10
2023-05-11T17:42:02.007Z,9.43
2023-05-11T17:45:07.112Z,11.17
2023-05-11T17:48:10.042Z,11.03
2023-05-11T17:51:12.692Z,7.73
2023-05-11T17:54:15.300Z,8.03
2023-05-11T17:57:17.918Z,6.87
2023-05-11T18:00:22.716Z,9.27
2023-05-11T18:03:25.391Z,6.87
2023-05-11T18:06:28.250Z,6.17
2023-05-11T18:09:30.926Z,6.87
2023-05-11T18:12:33.544Z,7.77
2023-05-11T18:15:37.814Z,5.87
2023-05-11T18:18:42.181Z,4.70
2023-05-11T18:21:44.862Z,5.93
2023-05-11T18:24:47.465Z,5.47
2023-05-11T18:27:50.468Z,4.93
2023-05-11T18:30:54.433Z,7.30
2023-05-11T18:33:57.110Z,5.87
2023-05-11T18:36:59.705Z,7.70
2023-05-11T18:40:06.182Z,6.77
2023-05-11T18:43:08.888Z,6.33
2023-05-11T18:46:12.848Z,10.70
2023-05-11T18:49:15.441Z,7.00
2023-05-11T18:52:18.138Z,6.73
2023-05-11T18:55:20.881Z,7.23
2023-05-11T18:58:23.601Z,7.50
2023-05-11T19:01:39.812Z,5.67
2023-05-11T19:04:49.495Z,4.67
2023-05-11T19:07:52.210Z,9.90
2023-05-11T19:10:54.828Z,6.23
2023-05-11T19:13:57.423Z,7.70
2023-05-11T19:17:01.529Z,5.27
2023-05-11T19:20:04.840Z,7.47
2023-05-11T19:23:07.441Z,8.07
2023-05-11T19:26:10.066Z,7.30
2023-05-11T19:29:16.814Z,11.90
2023-05-11T19:32:21.777Z,8.80
2023-05-11T19:35:24.607Z,6.67
2023-05-11T19:38:27.447Z,5.13
2023-05-11T19:41:30.027Z,7.93
2023-05-11T19:44:34.467Z,7.47
2023-05-11T19:47:38.711Z,7.60
2023-05-11T19:50:41.643Z,9.30
2023-05-11T19:53:44.675Z,10.20
2023-05-11T19:56:47.598Z,9.77
2023-05-11T19:59:50.217Z,9.33
2023-05-11T20:02:55.011Z,6.20
2023-05-11T20:05:57.704Z,11.20
2023-05-11T20:09:00.300Z,9.70
2023-05-11T20:12:03.269Z,7.77
2023-05-11T20:15:06.622Z,10.20
2023-05-11T20:18:10.609Z,13.63
2023-05-11T20:21:13.623Z,13.27
2023-05-11T20:24:16.215Z,7.23
2023-05-11T20:27:18.824Z,9.63
2023-05-11T20:30:21.495Z,9.10
2023-05-11T20:36:31.604Z,10.73
2023-05-11T20:39:34.493Z,7.63
2023-05-11T20:42:38.020Z,8.07
2023-05-11T20:45:40.644Z,7.37
2023-05-11T20:48:49.461Z,7.30
2023-05-11T20:51:54.649Z,6.13
2023-05-11T20:54:57.252Z,9.03
2023-05-11T20:57:59.879Z,10.80
2023-05-11T21:01:02.552Z,7.13
2023-05-11T21:04:06.787Z,11.60
2023-05-11T21:07:09.455Z,7.87
2023-05-11T21:10:13.242Z,10.63
2023-05-11T21:13:15.851Z,7.73
2023-05-11T21:16:18.793Z,11.03
2023-05-11T21:19:22.750Z,7.33
2023-05-11T21:22:25.330Z,7.53
2023-05-11T21:25:27.939Z,6.73
2023-05-11T21:28:32.556Z,7.37
2023-05-11T21:31:35.291Z,7.43
2023-05-11T21:34:39.300Z,8.20
2023-05-11T21:37:42.081Z,6.17
2023-05-11T21:40:44.800Z,4.63
2023-05-11T21:43:47.410Z,6.70
2023-05-11T21:46:50.444Z,7.20
2023-05-11T21:49:54.567Z,7.63
2023-05-11T21:52:57.161Z,9.40
2023-05-11T21:55:59.735Z,9.30
2023-05-11T21:59:02.324Z,10.17
2023-05-11T22:02:05.077Z,7.67
2023-05-11T22:05:10.306Z,7.23
2023-05-11T22:08:15.462Z,8.63
2023-05-11T22:11:19.420Z,7.83
2023-05-11T22:14:24.058Z,5.97
2023-05-11T22:17:26.711Z,8.80
2023-05-11T22:20:31.597Z,6.50
2023-05-11T22:23:35.277Z,6.40
2023-05-11T22:26:37.860Z,7.90
2023-05-11T22:29:40.478Z,8.27
2023-05-11T22:32:43.107Z,7.70
2023-05-11T22:35:47.240Z,6.43
2023-05-11T22:38:49.893Z,10.43
2023-05-11T22:41:52.511Z,5.27
2023-05-11T22:44:55.261Z,7.77
2023-05-11T22:47:57.986Z,7.90
2023-05-11T22:51:06.190Z,7.43
2023-05-11T22:54:08.866Z,7.63
2023-05-11T22:57:14.646Z,5.03
2023-05-11T23:00:17.907Z,6.23
2023-05-11T23:03:21.158Z,10.33
2023-05-11T23:06:25.340Z,7.07
2023-05-11T23:09:28.295Z,5.83
2023-05-11T23:12:30.912Z,8.33
2023-05-11T23:15:33.530Z,11.50
2023-05-11T23:18:36.292Z,8.27
2023-05-11T23:21:40.439Z,7.47
2023-05-11T23:24:43.020Z,6.97
2023-05-11T23:27:45.596Z,6.07
2023-05-11T23:30:48.172Z,4.90
2023-05-11T23:33:50.730Z,14.30
2023-05-11T23:36:54.793Z,6.70
2023-05-11T23:39:57.400Z,9.33
2023-05-11T23:42:59.980Z,6.27
2023-05-11T23:46:02.584Z,11.90
2023-05-11T23:49:05.323Z,9.70
2023-05-11T23:52:09.411Z,5.50
2023-05-11T23:55:12.612Z,7.87
2023-05-11T23:58:15.328Z,7.10
